createdAt,value
2019-06-01T00:02:20.599Z,6.93
2019-06-01T00:07:39.253Z,8.27
2019-06-01T00:12:58.213Z,8.97
2019-06-01T00:18:16.859Z,9.50
2019-06-01T00:23:35.427Z,9.00
2019-06-01T00:28:54.417Z,8.57
2019-06-01T00:34:12.927Z,9.00
2019-06-01T00:39:31.643Z,9.03
2019-06-01T00:44:50.494Z,8.53
2019-06-01T00:50:09.499Z,8.38
2019-06-01T00:55:28.236Z,10.70
2019-06-01T01:00:47.798Z,10.80
2019-06-01T01:06:07.734Z,10.93
2019-06-01T01:11:26.392Z,9.83
2019-06-01T01:16:45.469Z,10.60
2019-06-01T01:22:05.441Z,10.93
2019-06-01T01:27:24.100Z,10.93
2019-06-01T01:32:42.764Z,10.70
2019-06-01T01:38:02.020Z,12.67
2019-06-01T01:43:20.657Z,10.90
2019-06-01T01:48:39.247Z,10.80
2019-06-01T01:53:58.792Z,10.93
2019-06-01T01:59:17.483Z,9.70
2019-06-01T02:04:36.142Z,9.63
2019-06-01T02:09:55.258Z,10.37
2019-06-01T02:15:14.124Z,12.03
2019-06-01T02:20:33.161Z,12.23
2019-06-01T02:25:52.924Z,12.17
2019-06-01T02:31:11.606Z,12.53
2019-06-01T02:36:30.186Z,12.00
2019-06-01T02:41:48.848Z,11.07
2019-06-01T02:47:07.505Z,11.47
2019-06-01T02:52:26.158Z,11.77
2019-06-01T02:57:45.016Z,12.63
2019-06-01T03:03:04.852Z,11.97
2019-06-01T03:08:24.082Z,12.77
2019-06-01T03:13:44.360Z,13.33
2019-06-01T03:19:03.737Z,14.80
2019-06-01T03:24:25.829Z,14.67
2019-06-01T03:29:47.388Z,13.97
2019-06-01T03:35:07.149Z,16.63
2019-06-01T03:40:25.793Z,16.13
2019-06-01T03:45:44.438Z,17.30
2019-06-01T03:51:03.631Z,17.07
2019-06-01T03:56:22.420Z,17.37
2019-06-01T04:01:41.070Z,20.73
2019-06-01T04:06:59.720Z,34.83
2019-06-01T04:12:18.283Z,23.20
2019-06-01T04:17:37.028Z,9.67
2019-06-01T04:22:55.855Z,6.80
2019-06-01T04:28:14.510Z,6.93
2019-06-01T04:33:33.257Z,6.07
2019-06-01T04:38:51.819Z,7.30
2019-06-01T04:44:10.475Z,6.40
2019-06-01T04:49:29.863Z,5.45
2019-06-01T04:54:48.439Z,6.00
2019-06-01T05:00:24.202Z,5.50
2019-06-01T05:05:30.713Z,5.77
2019-06-01T05:10:49.357Z,5.97
2019-06-01T05:16:08.081Z,5.53
2019-06-01T05:21:26.742Z,5.00
2019-06-01T05:26:45.375Z,5.33
2019-06-01T05:32:04.081Z,4.97
2019-06-01T05:37:22.728Z,4.50
2019-06-01T05:42:41.371Z,4.57
2019-06-01T05:48:00.067Z,3.40
2019-06-01T05:53:19.949Z,3.77
2019-06-01T05:58:38.683Z,3.67
2019-06-01T06:03:57.330Z,3.47
2019-06-01T06:09:17.136Z,3.37
2019-06-01T06:14:35.883Z,3.40
2019-06-01T06:19:54.511Z,3.33
2019-06-01T06:25:14.218Z,3.12
2019-06-01T06:30:33.057Z,3.47
2019-06-01T06:35:51.689Z,3.50
2019-06-01T06:41:10.319Z,3.83
2019-06-01T06:46:28.907Z,4.13
2019-06-01T06:51:47.466Z,4.47
2019-06-01T06:57:06.151Z,4.20
2019-06-01T07:02:25.046Z,4.27
2019-06-01T07:07:43.760Z,3.73
2019-06-01T07:13:02.417Z,3.30
2019-06-01T07:18:21.524Z,3.20
2019-06-01T07:23:40.397Z,3.10
2019-06-01T07:28:58.932Z,2.40
2019-06-01T07:34:30.827Z,2.43
2019-06-01T07:39:37.936Z,2.20
2019-06-01T07:44:56.593Z,2.20
2019-06-01T07:50:15.650Z,2.23
2019-06-01T07:55:34.316Z,2.73
2019-06-01T08:00:53.277Z,2.57
2019-06-01T08:06:11.845Z,2.30
2019-06-01T08:11:33.484Z,2.50
2019-06-01T08:16:50.866Z,2.47
2019-06-01T08:22:09.509Z,2.50
2019-06-01T08:27:28.487Z,3.23
2019-06-01T08:32:47.316Z,2.23
2019-06-01T08:38:05.959Z,2.87
2019-06-01T08:43:25.494Z,2.57
2019-06-01T08:48:44.310Z,2.20
2019-06-01T08:54:02.952Z,2.50
2019-06-01T08:59:21.590Z,2.37
2019-06-01T09:04:40.169Z,2.07
2019-06-01T09:09:58.813Z,2.60
2019-06-01T09:15:17.546Z,2.45
2019-06-01T09:20:38.782Z,2.50
2019-06-01T09:25:56.564Z,2.37
2019-06-01T09:31:15.186Z,2.73
2019-06-01T09:36:34.542Z,2.27
2019-06-01T09:41:53.289Z,2.10
2019-06-01T09:47:11.961Z,3.07
2019-06-01T09:52:31.332Z,2.83
2019-06-01T09:57:49.907Z,2.47
2019-06-01T10:03:08.546Z,2.57
2019-06-01T10:08:27.100Z,3.47
2019-06-01T10:13:45.715Z,2.93
2019-06-01T10:19:04.354Z,3.30
2019-06-01T10:24:23.005Z,3.40
2019-06-01T10:29:43.044Z,3.42
2019-06-01T10:35:01.732Z,3.47
2019-06-01T10:40:20.414Z,3.30
2019-06-01T10:45:39.839Z,3.58
2019-06-01T10:50:58.676Z,3.25
2019-06-01T10:56:17.289Z,3.35
2019-06-01T11:01:37.452Z,4.08
2019-06-01T11:06:56.678Z,3.63
2019-06-01T11:12:15.362Z,2.95
2019-06-01T11:17:34.893Z,3.90
2019-06-01T11:22:53.640Z,3.98
2019-06-01T11:28:12.202Z,4.58
2019-06-01T11:33:30.834Z,3.37
2019-06-01T11:38:49.481Z,3.00
2019-06-01T11:44:08.105Z,2.95
2019-06-01T11:49:26.771Z,2.87
2019-06-01T11:54:45.555Z,3.58
2019-06-01T12:00:11.871Z,3.05
2019-06-01T12:05:30.477Z,2.92
2019-06-01T12:10:49.062Z,3.03
2019-06-01T12:16:07.647Z,2.58
2019-06-01T12:21:26.397Z,3.22
2019-06-01T12:26:45.551Z,3.58
2019-06-01T12:32:04.289Z,2.70
2019-06-01T12:37:39.922Z,2.60
2019-06-01T12:42:43.970Z,3.08
2019-06-01T12:48:02.796Z,2.35
2019-06-01T12:53:30.574Z,2.70
2019-06-01T12:58:50.554Z,2.30
2019-06-01T13:04:09.195Z,2.50
2019-06-01T13:09:27.834Z,2.70
2019-06-01T13:14:47.234Z,1.80
2019-06-01T13:20:07.798Z,1.90
2019-06-01T13:25:26.437Z,1.77
2019-06-01T13:30:46.063Z,2.40
2019-06-01T13:36:05.458Z,2.52
2019-06-01T13:41:24.088Z,2.00
2019-06-01T13:46:43.482Z,2.37
2019-06-01T13:52:03.135Z,2.10
2019-06-01T13:57:21.712Z,1.80
2019-06-01T14:02:40.460Z,1.92
2019-06-01T14:07:59.095Z,1.90
2019-06-01T14:13:17.857Z,1.70
2019-06-01T14:18:36.505Z,1.90
2019-06-01T14:23:56.069Z,1.82
2019-06-01T14:29:14.865Z,2.47
2019-06-01T14:34:33.547Z,2.10
2019-06-01T14:39:52.884Z,3.02
2019-06-01T14:45:12.815Z,1.75
2019-06-01T14:50:31.839Z,1.90
2019-06-01T14:55:51.623Z,2.12
2019-06-01T15:01:10.302Z,1.50
2019-06-01T15:06:29.051Z,1.98
2019-06-01T15:11:48.927Z,2.30
2019-06-01T15:17:08.938Z,1.95
2019-06-01T15:22:30.205Z,1.80
2019-06-01T15:27:54.730Z,1.80
2019-06-01T15:33:14.726Z,2.00
2019-06-01T15:38:33.648Z,1.70
2019-06-01T15:43:52.901Z,2.25
2019-06-01T15:49:11.627Z,3.22
2019-06-01T15:54:30.278Z,2.27
2019-06-01T15:59:48.915Z,1.65
2019-06-01T16:05:44.650Z,1.80
2019-06-01T16:11:13.033Z,1.82
2019-06-01T16:16:33.174Z,1.50
2019-06-01T16:21:51.694Z,1.70
2019-06-01T16:27:10.334Z,1.80
2019-06-01T16:32:28.972Z,1.60
2019-06-01T16:37:47.613Z,1.50
2019-06-01T16:43:06.262Z,2.60
2019-06-01T16:48:24.983Z,2.90
2019-06-01T16:53:43.619Z,2.02
2019-06-01T16:59:06.369Z,2.17
2019-06-01T17:04:25.088Z,5.00
2019-06-01T17:09:43.718Z,1.95
2019-06-01T17:15:03.265Z,3.35
2019-06-01T17:20:45.753Z,1.80
2019-06-01T17:26:04.395Z,2.98
2019-06-01T17:31:23.033Z,1.85
2019-06-01T17:36:41.669Z,2.30
2019-06-01T17:42:00.388Z,1.70
2019-06-01T17:47:18.956Z,2.60
2019-06-01T17:52:37.593Z,1.67
2019-06-01T17:57:56.249Z,15.23
2019-06-01T18:03:14.901Z,1.85
2019-06-01T18:08:33.534Z,1.75
2019-06-01T18:13:52.460Z,1.92
2019-06-01T18:19:12.263Z,1.70
2019-06-01T18:24:31.214Z,2.02
2019-06-01T18:29:49.849Z,2.00
2019-06-01T18:35:09.340Z,1.80
2019-06-01T18:40:28.021Z,1.70
2019-06-01T18:45:47.947Z,1.73
2019-06-01T18:51:07.988Z,1.93
2019-06-01T18:56:27.738Z,2.23
2019-06-01T19:01:46.687Z,2.30
2019-06-01T19:07:05.338Z,2.23
2019-06-01T19:12:24.583Z,2.40
2019-06-01T19:17:43.242Z,2.40
2019-06-01T19:23:01.784Z,3.10
2019-06-01T19:28:20.427Z,2.27
2019-06-01T19:33:39.083Z,2.97
2019-06-01T19:38:59.589Z,3.07
2019-06-01T19:44:18.116Z,2.60
2019-06-01T19:49:36.835Z,2.80
2019-06-01T19:54:55.482Z,2.70
2019-06-01T20:00:14.369Z,2.70
2019-06-01T20:05:33.088Z,3.23
2019-06-01T20:10:51.725Z,3.33
2019-06-01T20:16:10.759Z,2.50
2019-06-01T20:21:29.477Z,2.83
2019-06-01T20:26:49.336Z,3.30
2019-06-01T20:32:08.362Z,3.17
2019-06-01T20:37:26.924Z,2.90
2019-06-01T20:42:45.494Z,3.20
2019-06-01T20:48:04.145Z,3.27
2019-06-01T20:53:23.232Z,2.73
2019-06-01T20:58:42.014Z,2.80
2019-06-01T21:04:00.659Z,3.10
2019-06-01T21:09:19.950Z,3.17
2019-06-01T21:14:39.157Z,3.00
2019-06-01T21:19:57.913Z,3.30
2019-06-01T21:25:16.779Z,3.58
2019-06-01T21:30:35.313Z,3.83
2019-06-01T21:35:54.239Z,3.10
2019-06-01T21:41:13.146Z,3.80
2019-06-01T21:46:31.791Z,3.80
2019-06-01T21:51:52.958Z,3.63
2019-06-01T21:57:10.822Z,3.33
2019-06-01T22:02:29.537Z,3.60
2019-06-01T22:07:48.177Z,3.20
2019-06-01T22:13:18.246Z,3.17
2019-06-01T22:18:27.945Z,3.83
2019-06-01T22:23:46.641Z,3.40
2019-06-01T22:29:05.790Z,3.33
2019-06-01T22:34:24.865Z,4.00
2019-06-01T22:39:43.477Z,3.80
2019-06-01T22:45:02.394Z,4.23
2019-06-01T22:50:21.037Z,4.53
2019-06-01T22:55:39.694Z,4.17
2019-06-01T23:00:58.364Z,4.10
2019-06-01T23:06:17.004Z,4.17
2019-06-01T23:11:35.933Z,4.13
2019-06-01T23:16:54.902Z,4.30
2019-06-01T23:22:13.479Z,4.80
2019-06-01T23:27:32.625Z,3.97
2019-06-01T23:32:51.347Z,4.37
2019-06-01T23:38:10.004Z,3.97
2019-06-01T23:43:28.943Z,4.37
2019-06-01T23:48:47.656Z,4.63
2019-06-01T23:54:06.294Z,4.23
2019-06-01T23:59:27.912Z,5.23
